»·PEaware :: DAL320 KPSP-KONT

DAL320 :: KPSP-KONT

FLIGHT INFORMATION

Flight Status: Arrived
Operator:
Delta Air Lines
More flights by this operator :: More flights under this callsign
Pilot: Erik K. (18332)
Aircraft: BOEING 737-800
(B738)
More flights by this aircraft type
Origin: KPSP Palm Springs Intl
United States
Destination: KONT Ontario Intl
United States
More flights between these airports :: More routes between these airports
Route: CATH1 PSP V388 PDZ
File this flight plan on PilotEdge
Remarks: TEC ROUTE PSPP3
Altitude:
(Current/Filed)
10,000ft
Speed:
(Current/Filed)
250kts
Departed: 23-Nov-18 08:28 PM
Arrived: 23-Nov-18 08:51 PM
Distance/Time
Traveled:
57nm/0:23
Distance/Time
To Go:
Arrived

Flight Plot

Page will automatically refresh every two minutes.


Map Options




Map Legend


Flown Route
Filed Route
Departure Airport
Arrival Airport
Navaid (VOR, NDB)
Fix

Horizontal Profiles

Position Reports

Time Latitude Longitude Heading Altitude Ground
Speed
23-Nov-18 19:56 33.821182 -116.507755 43 412ft 0kts
23-Nov-18 19:57 33.821182 -116.507755 43 412ft 0kts
23-Nov-18 19:58 33.821182 -116.507755 43 412ft 0kts
23-Nov-18 19:59 33.821182 -116.507755 43 412ft 0kts
23-Nov-18 20:00 33.821182 -116.507755 43 412ft 0kts
23-Nov-18 20:01 33.821182 -116.507755 43 412ft 0kts
23-Nov-18 20:02 33.821182 -116.507755 43 412ft 0kts
23-Nov-18 20:03 33.821182 -116.507755 43 412ft 0kts
23-Nov-18 20:04 33.821182 -116.507755 43 412ft 0kts
23-Nov-18 20:05 33.821182 -116.507755 43 412ft 0kts
23-Nov-18 20:06 33.821182 -116.507755 43 412ft 0kts
23-Nov-18 20:07 33.821182 -116.507755 43 412ft 0kts
23-Nov-18 20:08 33.821182 -116.507755 43 412ft 0kts
23-Nov-18 20:09 33.821182 -116.507755 43 412ft 0kts
23-Nov-18 20:10 33.821182 -116.507755 43 412ft 0kts
23-Nov-18 20:11 33.821182 -116.507755 43 412ft 0kts
23-Nov-18 20:12 33.821182 -116.507755 43 412ft 0kts
23-Nov-18 20:13 33.821182 -116.507755 43 412ft 0kts
23-Nov-18 20:14 33.821101 -116.507929 144 412ft 2kts
23-Nov-18 20:15 33.820547 -116.507662 147 411ft 0kts
23-Nov-18 20:16 33.820547 -116.507662 147 411ft 0kts
23-Nov-18 20:17 33.820547 -116.507662 147 411ft 0kts
23-Nov-18 20:18 33.820547 -116.507662 147 411ft 0kts
23-Nov-18 20:19 33.820245 -116.507369 132 410ft 0kts
23-Nov-18 20:20 33.820216 -116.507319 114 409ft 1kts
23-Nov-18 20:21 33.822739 -116.504851 49 413ft 0kts
23-Nov-18 20:22 33.822964 -116.504496 60 413ft 13kts
23-Nov-18 20:23 33.818620 -116.499867 139 401ft 13kts
23-Nov-18 20:24 33.818343 -116.499522 115 400ft 0kts
23-Nov-18 20:25 33.818343 -116.499522 115 400ft 0kts
23-Nov-18 20:26 33.818343 -116.499522 115 400ft 0kts
23-Nov-18 20:27 33.818343 -116.499522 115 400ft 0kts
23-Nov-18 20:28 33.818343 -116.499522 115 400ft 0kts
23-Nov-18 20:29 33.818334 -116.499497 111 400ft 1kts
23-Nov-18 20:30 33.819588 -116.498698 324 399ft 2kts
23-Nov-18 20:31 33.834330 -116.511884 323 448ft 171kts
23-Nov-18 20:32 33.876687 -116.550072 321 2190ft 215kts
23-Nov-18 20:33 33.930663 -116.598462 341 4355ft 260kts
23-Nov-18 20:34 33.967512 -116.541101 117 7084ft 293kts
23-Nov-18 20:35 33.909729 -116.471472 132 9666ft 306kts
23-Nov-18 20:36 33.901169 -116.376954 54 10015ft 302kts
23-Nov-18 20:37 33.970530 -116.348810 329 10901ft 292kts
23-Nov-18 20:38 33.984626 -116.436293 264 11999ft 283kts
23-Nov-18 20:39 33.973713 -116.529630 263 11997ft 282kts
23-Nov-18 20:40 33.962726 -116.622471 263 11996ft 282kts
23-Nov-18 20:41 33.953161 -116.702527 263 12010ft 281kts
23-Nov-18 20:42 33.945913 -116.795192 269 12027ft 280kts
23-Nov-18 20:43 33.944922 -116.887730 283 12014ft 274kts
23-Nov-18 20:44 33.964648 -116.975826 286 10622ft 276kts
23-Nov-18 20:45 33.983754 -117.063890 286 9471ft 275kts
23-Nov-18 20:46 34.000515 -117.145857 286 9108ft 245kts
23-Nov-18 20:47 34.014931 -117.219159 286 8341ft 223kts
23-Nov-18 20:48 34.032165 -117.289016 291 6533ft 229kts
23-Nov-18 20:49 34.052693 -117.358910 287 4661ft 229kts
23-Nov-18 20:50 34.054846 -117.425924 269 3518ft 177kts
23-Nov-18 20:51 34.054910 -117.479553 269 2627ft 156kts
23-Nov-18 20:52 34.054712 -117.530378 267 1878ft 157kts
23-Nov-18 20:53 34.054929 -117.579151 271 1066ft 153kts
23-Nov-18 20:54 34.054049 -117.612123 229 929ft 16kts
23-Nov-18 20:55 34.052452 -117.612120 94 923ft 7kts

Navigation Log

Ident Type
Flight plan parsing failed, navigation log unavailable